createdAt,value
2022-10-08T00:01:16.535Z,8.85
2022-10-08T00:03:45.658Z,8.40
2022-10-08T00:06:17.423Z,7.32
2022-10-08T00:08:49.485Z,4.80
2022-10-08T00:11:20.704Z,8.25
2022-10-08T00:13:49.088Z,6.00
2022-10-08T00:16:29.092Z,8.13
2022-10-08T00:19:00.230Z,6.28
2022-10-08T00:21:32.672Z,5.18
2022-10-08T00:24:01.568Z,7.18
2022-10-08T00:26:30.248Z,6.80
2022-10-08T00:28:59.043Z,6.05
2022-10-08T00:31:32.669Z,5.03
2022-10-08T00:34:01.583Z,9.82
2022-10-08T00:36:31.784Z,7.72
2022-10-08T00:39:00.516Z,5.10
2022-10-08T00:41:29.862Z,4.60
2022-10-08T00:44:03.311Z,6.20
2022-10-08T00:46:37.769Z,5.07
2022-10-08T00:49:11.639Z,5.65
2022-10-08T00:51:49.866Z,6.28
2022-10-08T00:54:18.834Z,6.22
2022-10-08T00:56:49.608Z,3.90
2022-10-08T00:59:17.548Z,5.50
2022-10-08T01:01:44.727Z,4.85
2022-10-08T01:04:12.438Z,6.45
2022-10-08T01:07:35.735Z,6.72
2022-10-08T01:10:38.254Z,6.43
2022-10-08T01:13:11.405Z,4.22
2022-10-08T01:16:05.361Z,5.85
2022-10-08T01:18:39.913Z,4.95
2022-10-08T01:21:16.272Z,5.65
2022-10-08T01:23:55.146Z,6.22
2022-10-08T01:26:56.361Z,3.50
2022-10-08T01:29:30.733Z,4.05
2022-10-08T01:32:04.346Z,6.05
2022-10-08T01:34:37.623Z,6.22
2022-10-08T01:37:06.222Z,5.18
2022-10-08T01:39:35.201Z,3.60
2022-10-08T01:42:04.115Z,5.40
2022-10-08T01:44:43.129Z,7.43
2022-10-08T01:47:11.975Z,4.97
2022-10-08T01:49:46.265Z,5.85
2022-10-08T01:52:19.031Z,7.30
2022-10-08T01:54:48.404Z,6.00
2022-10-08T01:57:15.226Z,4.28
2022-10-08T01:59:50.838Z,6.05
2022-10-08T02:02:22.671Z,4.38
2022-10-08T02:04:51.441Z,4.38
2022-10-08T02:07:21.078Z,5.90
2022-10-08T02:09:53.550Z,5.40
2022-10-08T02:12:23.141Z,4.05
2022-10-08T02:14:54.472Z,5.55
2022-10-08T02:17:43.706Z,5.65
2022-10-08T02:20:26.076Z,5.55
2022-10-08T02:22:59.121Z,3.90
2022-10-08T02:25:34.673Z,5.07
2022-10-08T02:28:19.470Z,5.28
2022-10-08T02:30:53.615Z,5.38
2022-10-08T02:33:27.075Z,6.30
2022-10-08T02:35:57.209Z,4.45
2022-10-08T02:38:32.001Z,3.90
2022-10-08T02:41:00.351Z,3.45
2022-10-08T02:43:30.321Z,3.92
2022-10-08T02:46:07.623Z,4.22
2022-10-08T02:48:36.434Z,4.72
2022-10-08T02:51:06.367Z,3.33
2022-10-08T02:53:34.318Z,3.90
2022-10-08T02:56:00.654Z,2.92
2022-10-08T02:58:27.112Z,3.30
2022-10-08T03:00:58.461Z,3.42
2022-10-08T03:03:32.077Z,4.45
2022-10-08T03:06:02.141Z,5.00
2022-10-08T03:08:29.471Z,3.88
2022-10-08T03:10:56.063Z,4.25
2022-10-08T03:13:23.625Z,3.45
2022-10-08T03:15:51.872Z,3.30
2022-10-08T03:18:18.543Z,3.13
2022-10-08T03:20:49.314Z,3.70
2022-10-08T03:23:17.777Z,4.07
2022-10-08T03:25:44.669Z,5.57
2022-10-08T03:28:11.332Z,7.28
2022-10-08T03:30:37.870Z,3.97
2022-10-08T03:33:04.440Z,3.70
2022-10-08T03:35:31.960Z,3.70
2022-10-08T03:37:58.383Z,4.13
2022-10-08T03:40:24.838Z,2.90
2022-10-08T03:42:51.629Z,4.93
2022-10-08T03:45:18.103Z,4.07
2022-10-08T03:47:44.574Z,4.38
2022-10-08T03:50:11.103Z,3.50
2022-10-08T03:52:37.972Z,4.65
2022-10-08T03:55:04.935Z,4.63
2022-10-08T03:57:31.452Z,3.47
2022-10-08T03:59:58.111Z,5.55
2022-10-08T04:02:24.807Z,6.65
2022-10-08T04:04:51.767Z,4.32
2022-10-08T04:07:18.301Z,4.30
2022-10-08T04:09:44.925Z,3.35
2022-10-08T04:12:11.654Z,7.05
2022-10-08T04:14:38.388Z,4.35
2022-10-08T04:17:05.042Z,5.43
2022-10-08T04:19:31.615Z,7.28
2022-10-08T04:21:58.185Z,4.03
2022-10-08T04:24:24.758Z,5.90
2022-10-08T04:26:51.391Z,4.32
2022-10-08T04:29:18.063Z,4.68
2022-10-08T04:31:44.641Z,4.80
2022-10-08T04:34:11.948Z,4.85
2022-10-08T04:36:39.317Z,3.88
2022-10-08T04:39:05.884Z,4.00
2022-10-08T04:41:32.476Z,5.65
2022-10-08T04:44:01.202Z,5.70
2022-10-08T04:46:28.278Z,7.95
2022-10-08T04:48:56.296Z,4.93
2022-10-08T04:51:24.841Z,6.18
2022-10-08T04:53:52.316Z,3.50
2022-10-08T04:56:21.389Z,4.90
2022-10-08T04:58:48.672Z,8.40
2022-10-08T05:01:20.293Z,5.43
2022-10-08T05:03:49.242Z,6.13
2022-10-08T05:06:23.345Z,6.85
2022-10-08T05:08:54.404Z,4.30
2022-10-08T05:11:24.150Z,3.78
2022-10-08T05:13:57.916Z,4.45
2022-10-08T05:16:25.522Z,5.00
2022-10-08T05:18:52.600Z,6.32
2022-10-08T05:21:22.027Z,7.75
2022-10-08T05:23:48.655Z,4.85
2022-10-08T05:26:25.820Z,3.78
2022-10-08T05:29:07.409Z,5.95
2022-10-08T05:31:36.704Z,4.97
2022-10-08T05:34:03.319Z,7.68
2022-10-08T05:36:31.445Z,4.32
2022-10-08T05:38:59.996Z,5.57
2022-10-08T05:41:28.759Z,5.38
2022-10-08T05:43:56.681Z,5.97
2022-10-08T05:46:25.298Z,7.22
2022-10-08T05:48:55.902Z,6.20
2022-10-08T05:51:23.239Z,6.53
2022-10-08T05:53:51.044Z,6.40
2022-10-08T05:56:19.802Z,7.15
2022-10-08T05:58:47.707Z,5.70
2022-10-08T06:01:15.461Z,7.85
2022-10-08T06:03:42.588Z,7.65
2022-10-08T06:06:11.029Z,4.05
2022-10-08T06:08:38.339Z,5.30
2022-10-08T06:11:06.437Z,5.85
2022-10-08T06:13:57.540Z,5.32
2022-10-08T06:16:25.166Z,6.65
2022-10-08T06:18:51.965Z,7.53
2022-10-08T06:21:23.463Z,5.45
2022-10-08T06:23:52.897Z,4.30
2022-10-08T06:26:20.057Z,4.43
2022-10-08T06:28:46.821Z,9.35
2022-10-08T06:31:13.691Z,5.47
2022-10-08T06:33:40.941Z,8.30
2022-10-08T06:36:20.447Z,7.00
2022-10-08T06:38:51.302Z,5.50
2022-10-08T06:41:18.452Z,5.72
2022-10-08T06:43:48.837Z,5.13
2022-10-08T06:46:16.182Z,5.43
2022-10-08T06:48:43.006Z,3.75
2022-10-08T06:51:15.218Z,5.95
2022-10-08T06:53:46.504Z,8.95
2022-10-08T06:56:18.046Z,7.85
2022-10-08T06:58:45.178Z,5.55
2022-10-08T07:01:32.918Z,4.35
2022-10-08T07:04:01.288Z,5.20
2022-10-08T07:06:28.792Z,4.00
2022-10-08T07:08:57.402Z,7.80
2022-10-08T07:11:24.627Z,9.30
2022-10-08T07:13:51.290Z,10.93
2022-10-08T07:16:21.328Z,11.18
2022-10-08T07:18:49.171Z,4.28
2022-10-08T07:21:16.932Z,5.55
2022-10-08T07:23:43.883Z,4.65
2022-10-08T07:26:22.167Z,6.47
2022-10-08T07:28:50.585Z,8.73
2022-10-08T07:31:23.146Z,4.82
2022-10-08T07:33:50.380Z,6.93
2022-10-08T07:36:21.963Z,5.85
2022-10-08T07:38:48.706Z,6.65
2022-10-08T07:41:15.362Z,5.68
2022-10-08T07:43:42.971Z,8.38
2022-10-08T07:46:11.225Z,5.15
2022-10-08T07:48:38.646Z,7.18
2022-10-08T07:51:18.229Z,7.05
2022-10-08T07:53:45.087Z,5.95
2022-10-08T07:56:14.229Z,2.88
2022-10-08T07:58:41.432Z,3.03
2022-10-08T08:01:12.065Z,9.30
2022-10-08T08:03:42.021Z,5.65
2022-10-08T08:06:13.580Z,6.90
2022-10-08T08:08:42.577Z,6.78
2022-10-08T08:11:11.299Z,6.78
2022-10-08T08:13:39.631Z,6.22
2022-10-08T08:16:18.091Z,6.07
2022-10-08T08:18:47.139Z,10.60
2022-10-08T08:21:15.835Z,8.88
2022-10-08T08:23:44.819Z,8.07
2022-10-08T08:26:16.600Z,10.15
2022-10-08T08:28:43.660Z,8.63
2022-10-08T08:31:12.753Z,10.32
2022-10-08T08:33:39.897Z,5.97
2022-10-08T08:36:06.892Z,7.93
2022-10-08T08:38:39.914Z,10.43
2022-10-08T08:41:14.209Z,5.63
2022-10-08T08:43:42.316Z,7.80
2022-10-08T08:46:11.063Z,6.03
2022-10-08T08:48:39.623Z,7.90
2022-10-08T08:51:06.263Z,8.30
2022-10-08T08:53:33.948Z,8.30
2022-10-08T08:56:03.786Z,7.38
2022-10-08T08:58:35.522Z,8.75
2022-10-08T09:01:29.872Z,6.35
2022-10-08T09:03:59.643Z,6.72
2022-10-08T09:06:26.357Z,8.95
2022-10-08T09:09:02.069Z,5.82
2022-10-08T09:11:29.600Z,4.68
2022-10-08T09:14:17.525Z,7.32
2022-10-08T09:16:44.609Z,7.00
2022-10-08T09:19:14.272Z,6.13
2022-10-08T09:21:41.123Z,10.77
2022-10-08T09:24:08.448Z,8.45
2022-10-08T09:26:35.716Z,3.55
2022-10-08T09:29:04.275Z,4.57
2022-10-08T09:31:43.077Z,3.28
2022-10-08T09:34:15.880Z,5.13
2022-10-08T09:37:13.085Z,4.07
2022-10-08T09:39:39.745Z,4.03
2022-10-08T09:42:17.644Z,3.78
2022-10-08T09:44:52.913Z,2.90
2022-10-08T09:47:23.849Z,3.67
2022-10-08T09:50:06.882Z,3.33
2022-10-08T09:52:34.957Z,3.45
2022-10-08T09:55:17.759Z,2.72
2022-10-08T09:57:50.403Z,2.88
2022-10-08T10:00:30.267Z,2.75
2022-10-08T10:02:57.859Z,6.55
2022-10-08T10:05:39.030Z,5.70
2022-10-08T10:08:05.544Z,4.07
2022-10-08T10:10:45.139Z,4.03
2022-10-08T10:13:36.294Z,2.08
2022-10-08T10:16:05.292Z,3.65
2022-10-08T10:18:54.695Z,4.03
2022-10-08T10:21:30.494Z,4.90
2022-10-08T10:24:21.574Z,5.78
2022-10-08T10:26:50.524Z,5.25
2022-10-08T10:29:22.217Z,4.80
2022-10-08T10:31:52.709Z,4.65
2022-10-08T10:34:24.117Z,4.45
2022-10-08T10:37:10.096Z,4.68
2022-10-08T10:39:43.192Z,3.92
2022-10-08T10:42:14.973Z,6.88
2022-10-08T10:45:49.975Z,4.60
2022-10-08T10:48:17.511Z,5.32
2022-10-08T10:51:33.779Z,3.88
2022-10-08T10:54:58.092Z,3.70
2022-10-08T10:57:45.556Z,1.98
2022-10-08T11:00:28.461Z,5.00
2022-10-08T11:03:14.300Z,3.60
2022-10-08T11:05:43.606Z,7.32
2022-10-08T11:16:16.758Z,2.88
2022-10-08T11:18:58.474Z,4.45
2022-10-08T11:21:37.613Z,3.90
2022-10-08T11:24:14.525Z,2.85
2022-10-08T11:26:56.245Z,4.38
2022-10-08T11:29:37.927Z,3.80
2022-10-08T11:32:10.811Z,3.55
2022-10-08T11:34:37.999Z,4.63
2022-10-08T11:37:04.813Z,4.57
2022-10-08T11:40:09.913Z,3.67
2022-10-08T11:42:48.138Z,3.33
2022-10-08T11:45:24.084Z,4.07
2022-10-08T11:47:53.620Z,5.03
2022-10-08T11:50:30.833Z,4.60
2022-10-08T11:53:01.434Z,2.50
2022-10-08T11:55:35.417Z,3.83
2022-10-08T11:58:08.110Z,4.75
2022-10-08T12:00:48.395Z,2.47
2022-10-08T12:03:27.413Z,4.88
2022-10-08T12:06:34.714Z,4.70
2022-10-08T12:09:03.294Z,3.30
2022-10-08T12:11:29.972Z,3.08
2022-10-08T12:14:14.867Z,3.92
2022-10-08T12:16:47.973Z,2.97
2022-10-08T12:19:36.028Z,4.25
2022-10-08T12:22:03.577Z,3.97
2022-10-08T12:24:53.178Z,4.75
2022-10-08T12:27:28.854Z,5.07
2022-10-08T12:30:16.761Z,2.28
2022-10-08T12:32:43.384Z,4.10
2022-10-08T12:35:25.305Z,3.58
2022-10-08T12:38:13.900Z,4.18
2022-10-08T12:41:05.150Z,2.40
2022-10-08T12:43:50.476Z,2.85
2022-10-08T12:46:29.661Z,2.50
2022-10-08T12:49:29.708Z,1.30
2022-10-08T12:52:10.290Z,4.43
2022-10-08T12:54:40.171Z,2.17
2022-10-08T12:57:12.435Z,1.63
2022-10-08T12:59:40.816Z,2.72
2022-10-08T13:02:32.132Z,2.78
2022-10-08T13:04:58.692Z,4.47
2022-10-08T13:07:31.090Z,1.85
2022-10-08T13:09:59.816Z,2.90
2022-10-08T13:12:26.701Z,3.55
2022-10-08T13:15:08.686Z,3.17
2022-10-08T13:17:37.074Z,5.55
2022-10-08T13:20:19.667Z,3.53
2022-10-08T13:22:46.356Z,3.85
2022-10-08T13:25:48.461Z,4.75
2022-10-08T13:28:36.180Z,2.08
2022-10-08T13:31:21.867Z,2.47
2022-10-08T13:33:48.477Z,2.20
2022-10-08T13:36:21.330Z,1.90
2022-10-08T13:38:47.999Z,3.33
2022-10-08T13:41:23.712Z,1.83
2022-10-08T13:43:50.662Z,2.42
2022-10-08T13:46:17.240Z,2.90
2022-10-08T13:48:44.490Z,2.67
2022-10-08T13:51:11.349Z,1.20
2022-10-08T13:53:38.011Z,1.38
2022-10-08T13:56:05.799Z,2.03
2022-10-08T13:58:32.855Z,1.55
2022-10-08T14:00:59.512Z,2.80
2022-10-08T14:03:26.391Z,2.78
2022-10-08T14:05:52.992Z,2.78
2022-10-08T14:08:24.168Z,1.55
2022-10-08T14:10:57.568Z,1.80
2022-10-08T14:13:24.625Z,2.63
2022-10-08T14:15:51.293Z,2.00
2022-10-08T14:18:17.951Z,0.75
2022-10-08T14:20:44.568Z,0.57
2022-10-08T14:23:13.611Z,0.98
2022-10-08T14:25:40.170Z,0.98
2022-10-08T14:28:06.748Z,3.25
2022-10-08T14:30:33.344Z,1.00
2022-10-08T14:32:59.887Z,4.57
2022-10-08T14:35:26.302Z,1.45
2022-10-08T14:37:52.712Z,0.65
2022-10-08T14:40:21.211Z,0.68
2022-10-08T14:42:47.943Z,1.20
2022-10-08T14:45:14.781Z,0.32
2022-10-08T14:47:41.837Z,1.67
2022-10-08T14:50:08.643Z,0.75
2022-10-08T14:52:44.389Z,0.85
2022-10-08T14:55:11.895Z,1.77
2022-10-08T14:57:38.347Z,1.83
2022-10-08T15:00:05.502Z,1.75
2022-10-08T15:02:31.956Z,0.98
2022-10-08T15:04:58.405Z,2.25
2022-10-08T15:07:24.818Z,0.65
2022-10-08T15:09:51.439Z,0.88
2022-10-08T15:12:17.862Z,0.40
2022-10-08T15:14:44.282Z,1.73
2022-10-08T15:17:10.750Z,0.50
2022-10-08T15:19:37.187Z,1.88
2022-10-08T15:22:03.698Z,2.58
2022-10-08T15:24:30.161Z,1.30
2022-10-08T15:26:56.599Z,1.88
2022-10-08T15:29:23.033Z,2.65
2022-10-08T15:31:50.739Z,1.23
2022-10-08T15:34:18.854Z,2.35
2022-10-08T15:36:45.737Z,4.28
2022-10-08T15:39:15.035Z,3.45
2022-10-08T15:41:46.665Z,2.65
2022-10-08T15:44:22.297Z,2.83
2022-10-08T15:46:59.128Z,1.52
2022-10-08T15:49:40.569Z,3.95
2022-10-08T15:52:08.751Z,3.25
2022-10-08T15:54:36.404Z,2.67
2022-10-08T15:57:03.234Z,6.07
2022-10-08T15:59:29.666Z,2.00
2022-10-08T16:01:56.105Z,2.08
2022-10-08T16:04:22.551Z,3.22
2022-10-08T16:06:48.970Z,3.42
2022-10-08T16:09:16.700Z,2.70
2022-10-08T16:11:44.295Z,4.43
2022-10-08T16:14:19.471Z,4.47
2022-10-08T16:16:46.156Z,4.25
2022-10-08T16:19:16.286Z,3.58
2022-10-08T16:21:44.033Z,5.15
2022-10-08T16:24:10.715Z,4.07
2022-10-08T16:26:37.930Z,2.40
2022-10-08T16:29:06.874Z,3.80
2022-10-08T16:31:35.867Z,1.88
2022-10-08T16:34:05.473Z,1.90
2022-10-08T16:36:33.862Z,4.00
2022-10-08T16:39:00.677Z,6.00
2022-10-08T16:41:29.145Z,6.13
2022-10-08T16:43:58.217Z,7.93
2022-10-08T16:46:30.212Z,3.63
2022-10-08T16:49:02.741Z,1.67
2022-10-08T16:51:32.394Z,1.55
2022-10-08T16:54:00.296Z,3.20
2022-10-08T16:56:32.721Z,1.63
2022-10-08T16:59:01.556Z,1.38
2022-10-08T17:01:28.085Z,2.60
2022-10-08T17:03:54.993Z,1.65
2022-10-08T17:06:22.693Z,1.92
2022-10-08T17:08:50.189Z,2.47
2022-10-08T17:11:17.598Z,4.10
2022-10-08T17:13:46.461Z,3.30
2022-10-08T17:16:14.337Z,4.70
2022-10-08T17:18:43.095Z,1.92
2022-10-08T17:21:10.277Z,2.10
2022-10-08T17:23:38.256Z,4.05
2022-10-08T17:26:10.421Z,1.67
2022-10-08T17:28:40.718Z,0.82
2022-10-08T17:31:08.990Z,1.67
2022-10-08T17:33:36.579Z,2.55
2022-10-08T17:36:14.510Z,3.42
2022-10-08T17:38:42.206Z,4.25
2022-10-08T17:41:19.049Z,1.67
2022-10-08T17:43:46.152Z,1.70
2022-10-08T17:46:15.855Z,3.97
2022-10-08T17:48:42.839Z,2.28
2022-10-08T17:51:12.195Z,2.95
2022-10-08T17:53:39.623Z,3.17
2022-10-08T17:56:08.149Z,2.10
2022-10-08T17:58:34.997Z,2.53
2022-10-08T18:01:15.983Z,3.53
2022-10-08T18:03:43.930Z,2.83
2022-10-08T18:06:11.465Z,4.00
2022-10-08T18:08:38.187Z,4.93
2022-10-08T18:11:06.789Z,3.97
2022-10-08T18:13:33.836Z,2.88
2022-10-08T18:16:08.650Z,1.63
2022-10-08T18:18:35.506Z,3.13
2022-10-08T18:21:02.484Z,2.38
2022-10-08T18:23:31.500Z,2.33
2022-10-08T18:26:32.281Z,1.33
2022-10-08T18:29:00.347Z,2.17
2022-10-08T18:31:28.797Z,2.25
2022-10-08T18:34:01.786Z,2.33
2022-10-08T18:36:30.996Z,3.38
2022-10-08T18:39:03.368Z,3.45
2022-10-08T18:41:31.718Z,3.38
2022-10-08T18:44:00.604Z,2.92
2022-10-08T18:46:28.265Z,2.75
2022-10-08T18:48:55.479Z,2.25
2022-10-08T18:51:24.235Z,1.38
2022-10-08T18:53:52.777Z,3.45
2022-10-08T18:56:28.765Z,2.03
2022-10-08T18:58:56.448Z,1.95
2022-10-08T19:01:28.010Z,2.40
2022-10-08T19:03:56.673Z,2.65
2022-10-08T19:06:28.892Z,6.47
2022-10-08T19:08:56.515Z,3.80
2022-10-08T19:11:25.959Z,5.82
2022-10-08T19:13:53.300Z,6.72
2022-10-08T19:16:19.989Z,2.05
2022-10-08T19:19:03.935Z,5.55
2022-10-08T19:21:31.651Z,2.33
2022-10-08T19:23:59.311Z,2.58
2022-10-08T19:26:26.515Z,4.65
2022-10-08T19:28:54.133Z,5.78
2022-10-08T19:31:23.741Z,4.90
2022-10-08T19:33:58.765Z,8.30
2022-10-08T19:36:26.594Z,3.83
2022-10-08T19:39:01.690Z,4.00
2022-10-08T19:41:29.188Z,3.60
2022-10-08T19:43:56.578Z,7.88
2022-10-08T19:46:23.796Z,2.80
2022-10-08T19:48:51.681Z,6.40
2022-10-08T19:51:19.018Z,4.18
2022-10-08T19:53:45.883Z,3.53
2022-10-08T19:56:12.832Z,4.65
2022-10-08T19:58:43.928Z,4.30
2022-10-08T20:01:24.081Z,6.13
2022-10-08T20:03:57.683Z,5.47
2022-10-08T20:06:26.561Z,1.52
2022-10-08T20:08:58.435Z,4.30
2022-10-08T20:11:25.533Z,3.75
2022-10-08T20:13:53.123Z,6.65
2022-10-08T20:16:28.234Z,4.22
2022-10-08T20:19:00.823Z,3.88
2022-10-08T20:21:28.983Z,6.45
2022-10-08T20:23:55.734Z,4.32
2022-10-08T20:26:25.950Z,2.95
2022-10-08T20:28:54.695Z,4.18
2022-10-08T20:31:23.281Z,5.28
2022-10-08T20:33:56.401Z,3.13
2022-10-08T20:36:23.440Z,3.38
2022-10-08T20:38:51.217Z,2.42
2022-10-08T20:41:17.811Z,3.97
2022-10-08T20:43:44.263Z,3.67
2022-10-08T20:46:12.799Z,3.50
2022-10-08T20:48:40.855Z,2.67
2022-10-08T20:51:09.333Z,2.55
2022-10-08T20:53:35.994Z,4.15
2022-10-08T20:56:07.769Z,2.55
2022-10-08T20:58:35.282Z,3.35
2022-10-08T21:01:06.402Z,1.52
2022-10-08T21:03:33.413Z,2.40
2022-10-08T21:06:00.614Z,2.92
2022-10-08T21:08:27.034Z,3.20
2022-10-08T21:10:53.474Z,2.70
2022-10-08T21:13:20.486Z,2.95
2022-10-08T21:15:46.967Z,4.80
2022-10-08T21:18:13.439Z,3.08
2022-10-08T21:20:39.825Z,2.70
2022-10-08T21:23:06.245Z,3.75
2022-10-08T21:25:32.638Z,2.35
2022-10-08T21:27:59.052Z,3.45
2022-10-08T21:30:25.450Z,3.58
2022-10-08T21:32:51.876Z,3.03
2022-10-08T21:35:18.366Z,3.22
2022-10-08T21:37:44.771Z,1.83
2022-10-08T21:40:11.221Z,3.30
2022-10-08T21:42:37.815Z,7.15
2022-10-08T21:45:04.557Z,2.63
2022-10-08T21:47:30.977Z,3.05
2022-10-08T21:49:57.370Z,3.33
2022-10-08T21:52:23.786Z,6.32
2022-10-08T21:54:50.214Z,2.20
2022-10-08T21:57:16.682Z,1.05
2022-10-08T21:59:43.161Z,2.80
2022-10-08T22:02:09.660Z,3.78
2022-10-08T22:04:36.124Z,4.63
2022-10-08T22:07:04.570Z,3.10
2022-10-08T22:09:34.406Z,3.17
2022-10-08T22:12:01.641Z,2.30
2022-10-08T22:14:28.445Z,3.20
2022-10-08T22:16:54.998Z,2.63
2022-10-08T22:19:21.441Z,3.40
2022-10-08T22:21:47.849Z,3.08
2022-10-08T22:24:14.928Z,3.70
2022-10-08T22:26:44.654Z,3.97
2022-10-08T22:29:11.264Z,3.17
2022-10-08T22:31:38.221Z,2.40
2022-10-08T22:34:04.970Z,3.25
2022-10-08T22:36:32.707Z,3.05
2022-10-08T22:38:59.595Z,3.03
2022-10-08T22:41:28.463Z,1.98
2022-10-08T22:43:55.194Z,3.38
2022-10-08T22:46:25.886Z,1.40
2022-10-08T22:48:56.031Z,3.65
2022-10-08T22:51:22.519Z,4.57
2022-10-08T22:53:49.198Z,4.55
2022-10-08T22:56:18.513Z,3.67
2022-10-08T22:58:45.697Z,1.98
2022-10-08T23:01:15.089Z,5.28
2022-10-08T23:03:42.061Z,4.57
2022-10-08T23:06:20.009Z,2.25
2022-10-08T23:08:47.802Z,2.28
2022-10-08T23:11:16.020Z,4.82
2022-10-08T23:13:45.553Z,2.03
2022-10-08T23:16:13.589Z,2.53
2022-10-08T23:18:42.210Z,2.97
2022-10-08T23:21:17.002Z,3.60
2022-10-08T23:23:44.987Z,4.65
2022-10-08T23:26:12.023Z,4.10
2022-10-08T23:28:39.069Z,4.28
2022-10-08T23:31:17.712Z,4.30
2022-10-08T23:33:46.270Z,4.45
2022-10-08T23:36:19.382Z,2.45
2022-10-08T23:38:46.018Z,3.72
2022-10-08T23:41:13.452Z,1.90
2022-10-08T23:43:42.005Z,1.77
2022-10-08T23:46:10.226Z,2.50
2022-10-08T23:48:37.031Z,7.60
2022-10-08T23:51:04.017Z,3.17
2022-10-08T23:53:30.549Z,1.75
2022-10-08T23:55:57.012Z,2.38
2022-10-08T23:58:23.604Z,4.65
